الصفحة الرئيسية
METAR-TAF:

METAR-TAF

مطار :

مورمانسك, روسيا

دائرة عرض: 68-58N, خط طول: 033-03E, ارتفاع: 51 متر

مراقبة الطقس الحالي

تاريخ ووقت الإصدار 45 دقيقة قبل الساعة 02:30UTC
رياح هادئة
درجة الحرارة 13°درجة مئوية
الرطوبة 94%
ضغط 1017 hPa
الرؤية 10 كم أو أكثر
الغيوم لا تقل 1500 م ولا وجود لمزنة ركامية السحاب الأسود

METAR: ULMM 160230Z 00000MPS CAVOK 13/12 Q1017 R31/090070 NOSIG RMK QFE755

زمن: 06:15 (03:15 UTC)

توقعات

تاريخ ووقت الإصدار 1ساعة و 24 دقيقة قبل الساعة 01:51UTC
التوقعات صالحة من16 الساعة 03 UTC إلى 17 الساعة 03 UTC
ريح 6 عقدة من الشمال/الشمال الشرقي تتزايد حتى 17 عقدة
الرؤية 10 كم أو أكثر
الغيوم لا تقل 1500 م ولا وجود لمزنة ركامية السحاب الأسود
أصبح
من 16 الساعة 15 UTC إلى 16 الساعة 17 UTC
ريح 6 عقدة من الشمال

TAF: ULMM 160151Z 1603/1703 03003G09MPS CAVOK BECMG 1615/1617 36003MPS

أرصاد الطقس والتوقعات من أكثر من 4000 مطار (تقارير الطقس للمطار METAR والتنبؤ بالطقس بالمطارTAF).

المحطات المتاحة هي النقط الصفراء والحمراء على الخريطة.

حرك المؤشر فوق النقطة لمعرفة اسم المحطة.

ثم انقر لمعرفة أرصاد وتوقعات الطقس.

لتغيير الخارطة: اضغط على الأزرار الخضراء مع رمز الصليب الأسود للتكبير. على الزر الأخضر مع شرطة للتصغير، أو على الأسهم الخضراء للخرائط المجاورة.


METAR-TAF: